^^
Grace C. Lehan Memorial Weather Station Historical Data
Daily Summary for June 24, 2022 Units:  Both    English   Metric
Daily Weekly Monthly Yearly
  High: Low: Average:
Temperature: 85.8 °F /  29.9 °C 60.9 °F /  16.1 °C 72.6 °F /  22.6 °C
Dew Point: 69 °F /  20.6 °C 58.5 °F /  14.7 °C 64.1 °F /  17.8 °C
Humidity: 94% 46.8% 76%
Wind Speed: 4mph /  6.4km/h - 0.2mph /  0.3km/h
Wind Gust: 10mph /  16.1km/h - -
Wind- - West
Pressure: 30.00 in /  1015.8 hPa 29.92 in /  1013.1 hPa -
Precipitation: 0.00 in /  0 mm    
 
 
Tabular Data for June 24, 2022
Time Temperature Dew Point Pressure Wind Wind Speed Wind Gust Humidity Rainfall Rate (Hourly) solar
00:04 62.6 °F /  17 °C 58.7 °F /  14.8 °C 29.96in /  1014.4hPa Calm     87% 0.00in /  0mm 0 W/m2
00:09 62.6 °F /  17 °C 58.9 °F /  14.9 °C 29.96in /  1014.4hPa Calm     87.7% 0.00in /  0mm 0 W/m2
00:14 62.5 °F /  16.9 °C 58.9 °F /  14.9 °C 29.96in /  1014.4hPa Calm     88% 0.00in /  0mm 0 W/m2
00:19 62.3 °F /  16.8 °C 58.8 °F /  14.9 °C 29.96in /  1014.4hPa Calm     88% 0.00in /  0mm 0 W/m2
00:24 62.2 °F /  16.8 °C 58.8 °F /  14.9 °C 29.96in /  1014.4hPa Calm     88.4% 0.00in /  0mm 0 W/m2
00:29 62.2 °F /  16.8 °C 58.8 °F /  14.9 °C 29.96in /  1014.4hPa Calm     88.8% 0.00in /  0mm 0 W/m2
00:34 62.1 °F /  16.7 °C 58.8 °F /  14.9 °C 29.96in /  1014.4hPa Calm     89% 0.00in /  0mm 0 W/m2
00:39 62 °F /  16.7 °C 58.7 °F /  14.8 °C 29.96in /  1014.4hPa Calm     89% 0.00in /  0mm 0 W/m2
00:44 61.9 °F /  16.6 °C 58.6 °F /  14.8 °C 29.96in /  1014.4hPa Calm     89% 0.00in /  0mm 0 W/m2
00:49 61.8 °F /  16.6 °C 58.5 °F /  14.7 °C 29.96in /  1014.4hPa Calm     89% 0.00in /  0mm 0 W/m2
00:54 61.8 °F /  16.6 °C 58.8 °F /  14.9 °C 29.96in /  1014.4hPa Calm     90% 0.00in /  0mm 0 W/m2
00:59 61.7 °F /  16.5 °C 58.7 °F /  14.8 °C 29.96in /  1014.4hPa Calm     90% 0.00in /  0mm 0 W/m2
01:04 61.6 °F /  16.4 °C 58.6 °F /  14.8 °C 29.96in /  1014.4hPa Calm     90% 0.00in /  0mm 0 W/m2
01:09 61.6 °F /  16.4 °C 58.6 °F /  14.8 °C 29.96in /  1014.4hPa Calm     90% 0.00in /  0mm 0 W/m2
01:14 61.5 °F /  16.4 °C 58.6 °F /  14.8 °C 29.96in /  1014.4hPa Calm     90% 0.00in /  0mm 0 W/m2
01:19 61.5 °F /  16.4 °C 58.7 °F /  14.8 °C 29.96in /  1014.4hPa Calm     90.6% 0.00in /  0mm 0 W/m2
01:24 61.5 °F /  16.4 °C 58.9 °F /  14.9 °C 29.96in /  1014.4hPa Calm     91% 0.00in /  0mm 0 W/m2
01:29 61.5 °F /  16.4 °C 58.9 °F /  14.9 °C 29.96in /  1014.4hPa Calm     91% 0.00in /  0mm 0 W/m2
01:34 61.6 °F /  16.4 °C 58.9 °F /  14.9 °C 29.96in /  1014.4hPa Calm     91% 0.00in /  0mm 0 W/m2
01:39 61.5 °F /  16.4 °C 58.9 °F /  14.9 °C 29.96in /  1014.4hPa Calm     91% 0.00in /  0mm 0 W/m2
01:44 61.5 °F /  16.4 °C 58.8 °F /  14.9 °C 29.96in /  1014.4hPa Calm     91% 0.00in /  0mm 0 W/m2
01:49 61.5 °F /  16.4 °C 58.8 °F /  14.9 °C 29.96in /  1014.4hPa Calm     91% 0.00in /  0mm 0 W/m2
01:54 61.5 °F /  16.4 °C 58.9 °F /  14.9 °C 29.96in /  1014.4hPa Calm     91% 0.00in /  0mm 0 W/m2
01:59 61.5 °F /  16.4 °C 58.9 °F /  14.9 °C 29.96in /  1014.4hPa Calm     91% 0.00in /  0mm 0 W/m2
02:04 61.5 °F /  16.4 °C 58.9 °F /  14.9 °C 29.96in /  1014.4hPa Calm     91% 0.00in /  0mm 0 W/m2
02:09 61.6 °F /  16.4 °C 58.9 °F /  14.9 °C 29.96in /  1014.4hPa Calm     91% 0.00in /  0mm 0 W/m2
02:14 61.5 °F /  16.4 °C 58.9 °F /  14.9 °C 29.96in /  1014.4hPa Calm     91% 0.00in /  0mm 0 W/m2
02:19 61.5 °F /  16.4 °C 58.9 °F /  14.9 °C 29.96in /  1014.4hPa Calm     91% 0.00in /  0mm 0 W/m2
02:24 61.5 °F /  16.4 °C 58.9 °F /  14.9 °C 29.96in /  1014.4hPa Calm     91% 0.00in /  0mm 0 W/m2
02:29 61.6 °F /  16.4 °C 58.9 °F /  14.9 °C 29.96in /  1014.4hPa Calm     91% 0.00in /  0mm 0 W/m2
02:34 61.6 °F /  16.4 °C 58.9 °F /  14.9 °C 29.96in /  1014.4hPa Calm     91% 0.00in /  0mm 0 W/m2
02:39 61.6 °F /  16.4 °C 59 °F /  15 °C 29.96in /  1014.4hPa Calm     91% 0.00in /  0mm 0 W/m2
02:44 61.6 °F /  16.4 °C 59 °F /  15 °C 29.96in /  1014.4hPa Calm     91% 0.00in /  0mm 0 W/m2
02:49 61.6 °F /  16.4 °C 59 °F /  15 °C 29.96in /  1014.4hPa Calm     91% 0.00in /  0mm 0 W/m2
02:54 61.6 °F /  16.4 °C 59 °F /  15 °C 29.96in /  1014.4hPa Calm     91% 0.00in /  0mm 0 W/m2
02:59 61.6 °F /  16.4 °C 59 °F /  15 °C 29.95in /  1014.1hPa Calm     91% 0.00in /  0mm 0 W/m2
03:04 61.6 °F /  16.4 °C 59 °F /  15 °C 29.95in /  1014.1hPa Calm     91% 0.00in /  0mm 0 W/m2
03:09 61.6 °F /  16.4 °C 59 °F /  15 °C 29.95in /  1014.1hPa Calm     91% 0.00in /  0mm 0 W/m2
03:14 61.6 °F /  16.4 °C 59 °F /  15 °C 29.95in /  1014.1hPa Calm     91% 0.00in /  0mm 0 W/m2
03:19 61.6 °F /  16.4 °C 59 °F /  15 °C 29.95in /  1014.1hPa Calm     91% 0.00in /  0mm 0 W/m2
03:24 61.6 °F /  16.4 °C 59 °F /  15 °C 29.95in /  1014.1hPa Calm     91% 0.00in /  0mm 0 W/m2
03:29 61.7 °F /  16.5 °C 59 °F /  15 °C 29.95in /  1014.1hPa Calm     91% 0.00in /  0mm 0 W/m2
03:34 61.7 °F /  16.5 °C 59.1 °F /  15.1 °C 29.95in /  1014.1hPa Calm     91% 0.00in /  0mm 0 W/m2
03:39 61.7 °F /  16.5 °C 59.1 °F /  15.1 °C 29.95in /  1014.1hPa Calm     91% 0.00in /  0mm 0 W/m2
03:44 61.8 °F /  16.6 °C 59.2 °F /  15.1 °C 29.95in /  1014.1hPa Calm     91% 0.00in /  0mm 0 W/m2
03:49 61.8 °F /  16.6 °C 59.2 °F /  15.1 °C 29.95in /  1014.1hPa Calm     91% 0.00in /  0mm 0 W/m2
03:54 61.8 °F /  16.6 °C 59.2 °F /  15.1 °C 29.95in /  1014.1hPa Calm     91% 0.00in /  0mm 0 W/m2
03:59 61.8 °F /  16.6 °C 59.2 °F /  15.1 °C 29.95in /  1014.1hPa Calm     91% 0.00in /  0mm 0 W/m2
04:00 61.9 °F /  16.6 °C 59.3 °F /  15.2 °C 29.95in /  1014.1hPa Calm     91% 0.00in /  0mm 0 W/m2
04:09 61.9 °F /  16.6 °C 59.2 °F /  15.1 °C 29.96in /  1014.4hPa Calm     91% 0.00in /  0mm 0 W/m2
04:14 61.9 °F /  16.6 °C 59.3 °F /  15.2 °C 29.96in /  1014.4hPa Calm     91% 0.00in /  0mm 0 W/m2
04:19 61.9 °F /  16.6 °C 59.3 °F /  15.2 °C 29.96in /  1014.4hPa Calm     91% 0.00in /  0mm 0 W/m2
04:24 61.9 °F /  16.6 °C 59.3 °F /  15.2 °C 29.96in /  1014.4hPa Calm     91% 0.00in /  0mm 0 W/m2
04:29 61.9 °F /  16.6 °C 59.3 °F /  15.2 °C 29.96in /  1014.4hPa Calm     91% 0.00in /  0mm 0 W/m2
04:34 61.9 °F /  16.6 °C 59.2 °F /  15.1 °C 29.96in /  1014.4hPa Calm     91% 0.00in /  0mm 0 W/m2
04:39 61.9 °F /  16.6 °C 59.2 °F /  15.1 °C 29.96in /  1014.4hPa Calm     91% 0.00in /  0mm 0 W/m2
04:44 61.8 °F /  16.6 °C 59.2 °F /  15.1 °C 29.96in /  1014.4hPa Calm     91% 0.00in /  0mm 0 W/m2
04:49 61.8 °F /  16.6 °C 59.1 °F /  15.1 °C 29.96in /  1014.4hPa Calm     91% 0.00in /  0mm 0 W/m2
04:54 61.7 °F /  16.5 °C 59.1 °F /  15.1 °C 29.96in /  1014.4hPa Calm     91% 0.00in /  0mm 0 W/m2
04:59 61.6 °F /  16.4 °C 59 °F /  15 °C 29.96in /  1014.4hPa Calm     91% 0.00in /  0mm 0 W/m2
05:04 61.6 °F /  16.4 °C 58.9 °F /  14.9 °C 29.96in /  1014.4hPa Calm     91% 0.00in /  0mm 0 W/m2
05:09 61.4 °F /  16.3 °C 58.8 °F /  14.9 °C 29.96in /  1014.4hPa Calm     91% 0.00in /  0mm 0 W/m2
05:14 61.3 °F /  16.3 °C 58.7 °F /  14.8 °C 29.96in /  1014.4hPa Calm     91% 0.00in /  0mm 0 W/m2
05:19 61.3 °F /  16.3 °C 58.6 °F /  14.8 °C 29.97in /  1014.8hPa Calm     91% 0.00in /  0mm 0 W/m2
05:24 61.1 °F /  16.2 °C 58.5 °F /  14.7 °C 29.97in /  1014.8hPa Calm     91% 0.00in /  0mm 5 W/m2
05:29 61.1 °F /  16.2 °C 58.5 °F /  14.7 °C 29.97in /  1014.8hPa Calm     91.2% 0.00in /  0mm 9 W/m2
05:34 61 °F /  16.1 °C 58.7 °F /  14.8 °C 29.97in /  1014.8hPa Calm     92% 0.00in /  0mm 12 W/m2
05:39 60.9 °F /  16.1 °C 58.6 °F /  14.8 °C 29.97in /  1014.8hPa Calm     92% 0.00in /  0mm 21 W/m2
05:44 60.9 °F /  16.1 °C 58.6 °F /  14.8 °C 29.97in /  1014.8hPa Calm     92% 0.00in /  0mm 26 W/m2
05:49 60.9 °F /  16.1 °C 58.6 °F /  14.8 °C 29.97in /  1014.8hPa Calm     92% 0.00in /  0mm 39 W/m2
05:54 61 °F /  16.1 °C 58.8 °F /  14.9 °C 29.97in /  1014.8hPa Calm     92.5% 0.00in /  0mm 44 W/m2
05:59 61.2 °F /  16.2 °C 59.1 °F /  15.1 °C 29.97in /  1014.8hPa Calm     93% 0.00in /  0mm 47 W/m2
06:04 61.3 °F /  16.3 °C 59.3 °F /  15.2 °C 29.97in /  1014.8hPa Calm     93% 0.00in /  0mm 51 W/m2
06:09 61.5 °F /  16.4 °C 59.4 °F /  15.2 °C 29.97in /  1014.8hPa Calm     93% 0.00in /  0mm 49 W/m2
06:14 61.6 °F /  16.4 °C 59.6 °F /  15.3 °C 29.97in /  1014.8hPa Calm     93% 0.00in /  0mm 44 W/m2
06:19 61.8 °F /  16.6 °C 59.7 °F /  15.4 °C 29.97in /  1014.8hPa Calm     93% 0.00in /  0mm 46 W/m2
06:24 62 °F /  16.7 °C 60.2 °F /  15.7 °C 29.97in /  1014.8hPa Calm     93.9% 0.00in /  0mm 69 W/m2
06:29 62.1 °F /  16.7 °C 60.4 °F /  15.8 °C 29.97in /  1014.8hPa Calm     94% 0.00in /  0mm 77 W/m2
06:34 62.3 °F /  16.8 °C 60.5 °F /  15.8 °C 29.97in /  1014.8hPa Calm     94% 0.00in /  0mm 100 W/m2
06:39 62.4 °F /  16.9 °C 60.7 °F /  15.9 °C 29.97in /  1014.8hPa Calm     94% 0.00in /  0mm 46 W/m2
06:44 62.6 °F /  17 °C 60.9 °F /  16.1 °C 29.97in /  1014.8hPa Calm     94% 0.00in /  0mm 39 W/m2
06:49 62.8 °F /  17.1 °C 61 °F /  16.1 °C 29.97in /  1014.8hPa Calm     94% 0.00in /  0mm 35 W/m2
06:54 62.9 °F /  17.2 °C 61 °F /  16.1 °C 29.98in /  1015.1hPa Calm     93.4% 0.00in /  0mm 58 W/m2
06:59 63 °F /  17.2 °C 60.9 °F /  16.1 °C 29.98in /  1015.1hPa Calm     93% 0.00in /  0mm 60 W/m2
07:04 63.1 °F /  17.3 °C 61.1 °F /  16.2 °C 29.97in /  1014.8hPa Calm     93% 0.00in /  0mm 79 W/m2
07:09 63.3 °F /  17.4 °C 61.2 °F /  16.2 °C 29.98in /  1015.1hPa Calm     93% 0.00in /  0mm 111 W/m2
07:14 63.4 °F /  17.4 °C 61.4 °F /  16.3 °C 29.98in /  1015.1hPa Calm     93% 0.00in /  0mm 130 W/m2
07:19 63.6 °F /  17.6 °C 61.5 °F /  16.4 °C 29.98in /  1015.1hPa Calm     93% 0.00in /  0mm 267 W/m2
07:24 63.9 °F /  17.7 °C 61.8 °F /  16.6 °C 29.98in /  1015.1hPa Calm     93% 0.00in /  0mm 332 W/m2
07:29 64.5 °F /  18.1 °C 62.5 °F /  16.9 °C 29.98in /  1015.1hPa Calm     93.3% 0.00in /  0mm 441 W/m2
07:34 65.2 °F /  18.4 °C 63.2 °F /  17.3 °C 29.98in /  1015.1hPa Calm     93.1% 0.00in /  0mm 457 W/m2
07:39 66 °F /  18.9 °C 63.8 °F /  17.7 °C 29.98in /  1015.1hPa Calm     92.6% 0.00in /  0mm 346 W/m2
07:44 66.5 °F /  19.2 °C 63.6 °F /  17.6 °C 29.98in /  1015.1hPa Calm     90.6% 0.00in /  0mm 148 W/m2
07:49 66.8 °F /  19.3 °C 63.5 °F /  17.5 °C 29.98in /  1015.1hPa Calm     89% 0.00in /  0mm 279 W/m2
07:54 67 °F /  19.4 °C 63.4 °F /  17.4 °C 29.98in /  1015.1hPa Calm     88% 0.00in /  0mm 216 W/m2
07:59 67.4 °F /  19.7 °C 63.7 °F /  17.6 °C 29.98in /  1015.1hPa Calm     88% 0.00in /  0mm 446 W/m2
08:09 68.7 °F /  20.4 °C 64.5 °F /  18.1 °C 29.98in /  1015.1hPa Calm     86.4% 0.00in /  0mm 520 W/m2
08:14 69.6 °F /  20.9 °C 65.1 °F /  18.4 °C 29.98in /  1015.1hPa Calm     85.4% 0.00in /  0mm 529 W/m2
08:19 70.4 °F /  21.3 °C 65.1 °F /  18.4 °C 29.98in /  1015.1hPa Calm     83.5% 0.00in /  0mm 548 W/m2
08:24 71.1 °F /  21.7 °C 65.3 °F /  18.5 °C 29.98in /  1015.1hPa Calm     82% 0.00in /  0mm 557 W/m2
08:29 71.8 °F /  22.1 °C 65.8 °F /  18.8 °C 29.98in /  1015.1hPa Calm     81.4% 0.00in /  0mm 566 W/m2
08:34 72.5 °F /  22.5 °C 65.7 °F /  18.7 °C 29.98in /  1015.1hPa Calm     79.3% 0.00in /  0mm 585 W/m2
08:39 73.2 °F /  22.9 °C 66.4 °F /  19.1 °C 29.98in /  1015.1hPa Calm     79.4% 0.00in /  0mm 608 W/m2
08:44 73.8 °F /  23.2 °C 66.5 °F /  19.2 °C 29.97in /  1014.8hPa Calm     77.9% 0.00in /  0mm 612 W/m2
08:49 74.1 °F /  23.4 °C 65.9 °F /  18.8 °C 29.97in /  1014.8hPa Calm     75.5% 0.00in /  0mm 589 W/m2
08:54 74.1 °F /  23.4 °C 65.8 °F /  18.8 °C 29.97in /  1014.8hPa Calm     75.2% 0.00in /  0mm 601 W/m2
08:59 74.2 °F /  23.4 °C 65.8 °F /  18.8 °C 29.97in /  1014.8hPa Calm     75% 0.00in /  0mm 601 W/m2
09:04 74.1 °F /  23.4 °C 65.6 °F /  18.7 °C 29.97in /  1014.8hPa Calm     74.8% 0.00in /  0mm 737 W/m2
09:09 74.1 °F /  23.4 °C 65.8 °F /  18.8 °C 29.97in /  1014.8hPa Calm     75.4% 0.00in /  0mm 737 W/m2
09:14 74.4 °F /  23.6 °C 66.1 °F /  18.9 °C 29.97in /  1014.8hPa Calm     75.5% 0.00in /  0mm 765 W/m2
09:19 75 °F /  23.9 °C 67.4 °F /  19.7 °C 29.97in /  1014.8hPa Calm     77.4% 0.00in /  0mm 849 W/m2
09:24 75.6 °F /  24.2 °C 66.6 °F /  19.2 °C 29.97in /  1014.8hPa Calm     73.5% 0.00in /  0mm 891 W/m2
09:29 75.6 °F /  24.2 °C 65.5 °F /  18.6 °C 29.97in /  1014.8hPa Calm     71% 0.00in /  0mm 932 W/m2
09:34 75.5 °F /  24.2 °C 65.8 °F /  18.8 °C 29.97in /  1014.8hPa Calm     71.9% 0.00in /  0mm 932 W/m2
09:39 75.3 °F /  24.1 °C 66 °F /  18.9 °C 29.97in /  1014.8hPa Calm     72.7% 0.00in /  0mm 362 W/m2
09:44 75.4 °F /  24.1 °C 66.4 °F /  19.1 °C 29.97in /  1014.8hPa Calm     73.6% 0.00in /  0mm 362 W/m2
09:49 75.3 °F /  24.1 °C 65.8 °F /  18.8 °C 29.97in /  1014.8hPa Calm     72.5% 0.00in /  0mm 464 W/m2
09:54 75.2 °F /  24 °C 65.9 °F /  18.8 °C 29.97in /  1014.8hPa Calm     72.9% 0.00in /  0mm 466 W/m2
09:59 75.3 °F /  24.1 °C 66 °F /  18.9 °C 29.97in /  1014.8hPa East 0.1mph /  0.2km/h 2mph /  3.2km/h 72.7% 0.00in /  0mm 345 W/m2
10:04 75.3 °F /  24.1 °C 66.1 °F /  18.9 °C 29.97in /  1014.8hPa Calm   2mph /  3.2km/h 73% 0.00in /  0mm 383 W/m2
10:09 75.3 °F /  24.1 °C 66.2 °F /  19 °C 29.97in /  1014.8hPa Calm     73.2% 0.00in /  0mm 1039 W/m2
10:14 75.8 °F /  24.3 °C 66.9 °F /  19.4 °C 29.97in /  1014.8hPa Calm     74% 0.00in /  0mm 1039 W/m2
10:19 76.2 °F /  24.6 °C 66.5 °F /  19.2 °C 29.97in /  1014.8hPa Calm     71.8% 0.00in /  0mm 427 W/m2
10:24 76.4 °F /  24.7 °C 66.2 °F /  19 °C 29.97in /  1014.8hPa Calm     70.8% 0.00in /  0mm 475 W/m2
10:29 76.3 °F /  24.6 °C 65.8 °F /  18.8 °C 29.97in /  1014.8hPa Calm     69.9% 0.00in /  0mm 290 W/m2
10:34 76.2 °F /  24.6 °C 65.8 °F /  18.8 °C 29.97in /  1014.8hPa SE 0.2mph /  0.3km/h 3mph /  4.8km/h 70.2% 0.00in /  0mm 218 W/m2
10:39 76.1 °F /  24.5 °C 66.2 °F /  19 °C 29.97in /  1014.8hPa SW 0.1mph /  0.2km/h 3mph /  4.8km/h 71.3% 0.00in /  0mm 255 W/m2
10:44 76.1 °F /  24.5 °C 65.9 °F /  18.8 °C 29.97in /  1014.8hPa WSW 0.2mph /  0.3km/h 3mph /  4.8km/h 70.8% 0.00in /  0mm 506 W/m2
10:49 76.4 °F /  24.7 °C 66.2 °F /  19 °C 29.97in /  1014.8hPa WSW 0.2mph /  0.3km/h 4mph /  6.4km/h 70.7% 0.00in /  0mm 1005 W/m2
10:54 77.1 °F /  25.1 °C 66.6 °F /  19.2 °C 29.97in /  1014.8hPa Calm   4mph /  6.4km/h 70.1% 0.00in /  0mm 1118 W/m2
10:59 78 °F /  25.6 °C 67.2 °F /  19.6 °C 29.97in /  1014.8hPa West 0.5mph /  0.8km/h 4mph /  6.4km/h 69.3% 0.00in /  0mm 1118 W/m2
11:04 78.5 °F /  25.8 °C 65.4 °F /  18.6 °C 29.97in /  1014.8hPa West 2.3mph /  3.7km/h 9mph /  14.5km/h 64.3% 0.00in /  0mm 276 W/m2
11:09 78.2 °F /  25.7 °C 64.8 °F /  18.2 °C 29.97in /  1014.8hPa WSW 0.5mph /  0.8km/h 9mph /  14.5km/h 63.3% 0.00in /  0mm 251 W/m2
11:14 77.9 °F /  25.5 °C 65 °F /  18.3 °C 29.97in /  1014.8hPa West 0.6mph /  1km/h 9mph /  14.5km/h 64.5% 0.00in /  0mm 1129 W/m2
11:19 78.2 °F /  25.7 °C 65.7 °F /  18.7 °C 29.97in /  1014.8hPa West 1.3mph /  2.1km/h 9mph /  14.5km/h 65.6% 0.00in /  0mm 1085 W/m2
11:24 78.3 °F /  25.7 °C 65 °F /  18.3 °C 29.97in /  1014.8hPa WNW 1.1mph /  1.8km/h 9mph /  14.5km/h 63.6% 0.00in /  0mm 172 W/m2
11:29 78 °F /  25.6 °C 64.8 °F /  18.2 °C 29.97in /  1014.8hPa WNW 0.4mph /  0.6km/h 9mph /  14.5km/h 63.9% 0.00in /  0mm 1016 W/m2
11:34 77.9 °F /  25.5 °C 65.2 °F /  18.4 °C 29.97in /  1014.8hPa West 0.3mph /  0.5km/h 9mph /  14.5km/h 65% 0.00in /  0mm 1093 W/m2
11:39 78.5 °F /  25.8 °C 66.4 °F /  19.1 °C 29.97in /  1014.8hPa West 0.2mph /  0.3km/h 5mph /  8km/h 66.7% 0.00in /  0mm 1158 W/m2
11:44 79.4 °F /  26.3 °C 66.3 °F /  19.1 °C 29.97in /  1014.8hPa West 2.3mph /  3.7km/h 7mph /  11.3km/h 64.3% 0.00in /  0mm 1097 W/m2
11:49 79.6 °F /  26.4 °C 65.5 °F /  18.6 °C 29.97in /  1014.8hPa West 0.4mph /  0.6km/h 7mph /  11.3km/h 62.1% 0.00in /  0mm 1072 W/m2
11:54 79.8 °F /  26.6 °C 66.1 °F /  18.9 °C 29.97in /  1014.8hPa West 1.7mph /  2.7km/h 10mph /  16.1km/h 63% 0.00in /  0mm 1062 W/m2
11:59 80.3 °F /  26.8 °C 65.6 °F /  18.7 °C 29.97in /  1014.8hPa West 0.2mph /  0.3km/h 10mph /  16.1km/h 60.9% 0.00in /  0mm 1092 W/m2
12:00 80.6 °F /  27 °C 65.4 °F /  18.6 °C 29.96in /  1014.4hPa WNW 4mph /  6.4km/h 10mph /  16.1km/h 60% 0.00in /  0mm 1092 W/m2
12:09 81.4 °F /  27.4 °C 67.1 °F /  19.5 °C 29.97in /  1014.8hPa WSW 0.6mph /  1km/h 5mph /  8km/h 62% 0.00in /  0mm 1190 W/m2
12:14 81.6 °F /  27.6 °C 66.6 °F /  19.2 °C 29.97in /  1014.8hPa Calm   5mph /  8km/h 60.5% 0.00in /  0mm 1190 W/m2
12:19 81.7 °F /  27.6 °C 67.8 °F /  19.9 °C 29.97in /  1014.8hPa Calm   5mph /  8km/h 62.8% 0.00in /  0mm 1190 W/m2
12:24 82 °F /  27.8 °C 66.9 °F /  19.4 °C 29.97in /  1014.8hPa WNW 0.4mph /  0.6km/h 5mph /  8km/h 60.2% 0.00in /  0mm 1055 W/m2
12:29 82.1 °F /  27.8 °C 65.7 °F /  18.7 °C 29.97in /  1014.8hPa NNE 0.4mph /  0.6km/h 5mph /  8km/h 57.7% 0.00in /  0mm 1067 W/m2
12:34 81.8 °F /  27.7 °C 65.6 °F /  18.7 °C 29.97in /  1014.8hPa Calm   5mph /  8km/h 58.1% 0.00in /  0mm 229 W/m2
12:39 81.5 °F /  27.5 °C 66.1 °F /  18.9 °C 29.97in /  1014.8hPa NW 0.3mph /  0.5km/h 3mph /  4.8km/h 59.6% 0.00in /  0mm 492 W/m2
12:44 81.3 °F /  27.4 °C 64.9 °F /  18.3 °C 29.97in /  1014.8hPa West 0.6mph /  1km/h 4mph /  6.4km/h 57.6% 0.00in /  0mm 492 W/m2
12:49 81.2 °F /  27.3 °C 65.8 °F /  18.8 °C 29.96in /  1014.4hPa Calm   4mph /  6.4km/h 59.7% 0.00in /  0mm 343 W/m2
12:54 80.9 °F /  27.2 °C 65.2 °F /  18.4 °C 29.96in /  1014.4hPa Calm   4mph /  6.4km/h 58.8% 0.00in /  0mm 986 W/m2
12:59 81 °F /  27.2 °C 66.6 °F /  19.2 °C 29.96in /  1014.4hPa Calm   4mph /  6.4km/h 61.7% 0.00in /  0mm 990 W/m2
13:04 81.2 °F /  27.3 °C 67 °F /  19.4 °C 29.96in /  1014.4hPa West 0.1mph /  0.2km/h 4mph /  6.4km/h 62.2% 0.00in /  0mm 988 W/m2
13:09 81.4 °F /  27.4 °C 66.7 °F /  19.3 °C 29.96in /  1014.4hPa West 0.2mph /  0.3km/h 3mph /  4.8km/h 61.1% 0.00in /  0mm 963 W/m2
13:14 81.5 °F /  27.5 °C 67.1 °F /  19.5 °C 29.95in /  1014.1hPa WNW 0.5mph /  0.8km/h 5mph /  8km/h 61.8% 0.00in /  0mm 976 W/m2
13:19 81.8 °F /  27.7 °C 67.5 °F /  19.7 °C 29.95in /  1014.1hPa Calm   5mph /  8km/h 62% 0.00in /  0mm 1004 W/m2
13:24 82.3 °F /  27.9 °C 68 °F /  20 °C 29.95in /  1014.1hPa WNW 0.1mph /  0.2km/h 5mph /  8km/h 62% 0.00in /  0mm 1120 W/m2
13:29 82.7 °F /  28.2 °C 67.4 °F /  19.7 °C 29.95in /  1014.1hPa WNW 0.1mph /  0.2km/h 5mph /  8km/h 60% 0.00in /  0mm 1120 W/m2
13:34 82.7 °F /  28.2 °C 67 °F /  19.4 °C 29.95in /  1014.1hPa Calm   5mph /  8km/h 59.1% 0.00in /  0mm 1100 W/m2
13:39 82.7 °F /  28.2 °C 67.1 °F /  19.5 °C 29.95in /  1014.1hPa Calm   1mph /  1.6km/h 59.5% 0.00in /  0mm 1078 W/m2
13:44 82.8 °F /  28.2 °C 66.7 °F /  19.3 °C 29.95in /  1014.1hPa Calm   1mph /  1.6km/h 58.3% 0.00in /  0mm 1053 W/m2
13:49 83 °F /  28.3 °C 67.4 °F /  19.7 °C 29.95in /  1014.1hPa Calm   1mph /  1.6km/h 59.5% 0.00in /  0mm 1095 W/m2
13:54 83.3 °F /  28.5 °C 67.4 °F /  19.7 °C 29.95in /  1014.1hPa West 1mph /  1.6km/h 10mph /  16.1km/h 58.7% 0.00in /  0mm 1071 W/m2
13:59 83.8 °F /  28.8 °C 67.6 °F /  19.8 °C 29.94in /  1013.8hPa West 0.6mph /  1km/h 10mph /  16.1km/h 58.3% 0.00in /  0mm 1053 W/m2
14:04 84.1 °F /  28.9 °C 67 °F /  19.4 °C 29.94in /  1013.8hPa West 0.5mph /  0.8km/h 10mph /  16.1km/h 56.5% 0.00in /  0mm 1088 W/m2
14:05 84.3 °F /  29.1 °C 68.4 °F /  20.2 °C 29.94in /  1013.8hPa Calm   5mph /  8km/h 59% 0.00in /  0mm 1129 W/m2
14:30 84 °F /  28.9 °C 66.6 °F /  19.2 °C 29.94in /  1013.8hPa Calm   6mph /  9.7km/h 56% 0.00in /  0mm 804 W/m2
15:00 84.3 °F /  29.1 °C 66.9 °F /  19.4 °C 29.93in /  1013.4hPa Calm   5mph /  8km/h 56% 0.00in /  0mm 682 W/m2
15:30 85.3 °F /  29.6 °C 66.3 °F /  19.1 °C 29.93in /  1013.4hPa Calm   5mph /  8km/h 53% 0.00in /  0mm 798 W/m2
16:04 84.8 °F /  29.3 °C 65.5 °F /  18.6 °C 29.93in /  1013.4hPa West 1.7mph /  2.7km/h 5mph /  8km/h 52.5% 0.00in /  0mm 902 W/m2
16:09 84.8 °F /  29.3 °C 65.3 °F /  18.5 °C 29.93in /  1013.4hPa WNW 2.1mph /  3.4km/h 10mph /  16.1km/h 52.1% 0.00in /  0mm 902 W/m2
16:14 85.1 °F /  29.5 °C 65.2 °F /  18.4 °C 29.92in /  1013.1hPa WNW 0.7mph /  1.1km/h 10mph /  16.1km/h 51.4% 0.00in /  0mm 856 W/m2
16:19 85.2 °F /  29.6 °C 65.6 °F /  18.7 °C 29.92in /  1013.1hPa WNW 1mph /  1.6km/h 10mph /  16.1km/h 52.1% 0.00in /  0mm 330 W/m2
16:24 85.2 °F /  29.6 °C 64.8 °F /  18.2 °C 29.92in /  1013.1hPa West 1.5mph /  2.4km/h 10mph /  16.1km/h 50.5% 0.00in /  0mm 225 W/m2
16:29 85.4 °F /  29.7 °C 65.4 °F /  18.6 °C 29.92in /  1013.1hPa West 0.8mph /  1.3km/h 10mph /  16.1km/h 51.3% 0.00in /  0mm 221 W/m2
16:34 85.6 °F /  29.8 °C 65 °F /  18.3 °C 29.92in /  1013.1hPa West 2mph /  3.2km/h 10mph /  16.1km/h 50.2% 0.00in /  0mm 221 W/m2
16:39 85.8 °F /  29.9 °C 64.7 °F /  18.2 °C 29.92in /  1013.1hPa WSW 2.1mph /  3.4km/h 10mph /  16.1km/h 49.4% 0.00in /  0mm 179 W/m2
16:44 85.7 °F /  29.8 °C 64.6 °F /  18.1 °C 29.92in /  1013.1hPa West 1.1mph /  1.8km/h 10mph /  16.1km/h 49.3% 0.00in /  0mm 181 W/m2
16:49 85.7 °F /  29.8 °C 64.2 °F /  17.9 °C 29.92in /  1013.1hPa West 0.7mph /  1.1km/h 10mph /  16.1km/h 48.8% 0.00in /  0mm 197 W/m2
16:54 85.5 °F /  29.7 °C 63.6 °F /  17.6 °C 29.92in /  1013.1hPa West 1.1mph /  1.8km/h 10mph /  16.1km/h 48% 0.00in /  0mm 190 W/m2
16:59 85.3 °F /  29.6 °C 62.7 °F /  17.1 °C 29.92in /  1013.1hPa WNW 1mph /  1.6km/h 10mph /  16.1km/h 46.8% 0.00in /  0mm 172 W/m2
17:04 85.1 °F /  29.5 °C 62.6 °F /  17 °C 29.92in /  1013.1hPa WNW 0.6mph /  1km/h 10mph /  16.1km/h 47% 0.00in /  0mm 139 W/m2
17:09 84.9 °F /  29.4 °C 64.9 °F /  18.3 °C 29.92in /  1013.1hPa West 0.4mph /  0.6km/h 10mph /  16.1km/h 51.3% 0.00in /  0mm 148 W/m2
17:14 85 °F /  29.4 °C 68 °F /  20 °C 29.93in /  1013.4hPa West 0.4mph /  0.6km/h 10mph /  16.1km/h 56.9% 0.00in /  0mm 169 W/m2
17:19 85 °F /  29.4 °C 69 °F /  20.6 °C 29.93in /  1013.4hPa West 0.8mph /  1.3km/h 10mph /  16.1km/h 58.8% 0.00in /  0mm 153 W/m2
17:24 85 °F /  29.4 °C 68.7 °F /  20.4 °C 29.93in /  1013.4hPa Calm   10mph /  16.1km/h 58.3% 0.00in /  0mm 151 W/m2
17:29 84.7 °F /  29.3 °C 68.5 °F /  20.3 °C 29.92in /  1013.1hPa Calm   10mph /  16.1km/h 58.3% 0.00in /  0mm 151 W/m2
17:34 84.3 °F /  29.1 °C 68 °F /  20 °C 29.92in /  1013.1hPa West 0.1mph /  0.2km/h 10mph /  16.1km/h 58.2% 0.00in /  0mm 100 W/m2
17:39 83.9 °F /  28.8 °C 68.5 °F /  20.3 °C 29.92in /  1013.1hPa West 0.1mph /  0.2km/h 3mph /  4.8km/h 59.9% 0.00in /  0mm 105 W/m2
17:44 83.7 °F /  28.7 °C 68.3 °F /  20.2 °C 29.92in /  1013.1hPa Calm   3mph /  4.8km/h 59.9% 0.00in /  0mm 120 W/m2
17:49 83.6 °F /  28.7 °C 68.3 °F /  20.2 °C 29.92in /  1013.1hPa Calm   3mph /  4.8km/h 60% 0.00in /  0mm 142 W/m2
17:54 83.5 °F /  28.6 °C 68.4 °F /  20.2 °C 29.92in /  1013.1hPa West 0.2mph /  0.3km/h 4mph /  6.4km/h 60.5% 0.00in /  0mm 135 W/m2
17:59 83.3 °F /  28.5 °C 67.7 °F /  19.8 °C 29.92in /  1013.1hPa West 0.1mph /  0.2km/h 4mph /  6.4km/h 59.4% 0.00in /  0mm 90 W/m2
18:04 83.1 °F /  28.4 °C 67.8 °F /  19.9 °C 29.92in /  1013.1hPa West 0.2mph /  0.3km/h 4mph /  6.4km/h 60% 0.00in /  0mm 81 W/m2
18:09 82.9 °F /  28.3 °C 67.5 °F /  19.7 °C 29.92in /  1013.1hPa Calm   3mph /  4.8km/h 59.7% 0.00in /  0mm 53 W/m2
18:14 82.8 °F /  28.2 °C 67.4 °F /  19.7 °C 29.92in /  1013.1hPa Calm   3mph /  4.8km/h 59.8% 0.00in /  0mm 51 W/m2
18:19 82.7 °F /  28.2 °C 67.4 °F /  19.7 °C 29.92in /  1013.1hPa Calm   3mph /  4.8km/h 60% 0.00in /  0mm 51 W/m2
18:24 82.6 °F /  28.1 °C 67.4 °F /  19.7 °C 29.93in /  1013.4hPa Calm   3mph /  4.8km/h 60.1% 0.00in /  0mm 46 W/m2
18:29 82.6 °F /  28.1 °C 68.2 °F /  20.1 °C 29.93in /  1013.4hPa West 0.1mph /  0.2km/h 3mph /  4.8km/h 61.9% 0.00in /  0mm 39 W/m2
18:34 82.5 °F /  28.1 °C 68.5 °F /  20.3 °C 29.93in /  1013.4hPa West 0.1mph /  0.2km/h 3mph /  4.8km/h 62.8% 0.00in /  0mm 39 W/m2
18:39 82.3 °F /  27.9 °C 68.5 °F /  20.3 °C 29.93in /  1013.4hPa WSW 0.2mph /  0.3km/h 3mph /  4.8km/h 63% 0.00in /  0mm 40 W/m2
18:44 82.2 °F /  27.9 °C 68 °F /  20 °C 29.93in /  1013.4hPa Calm   3mph /  4.8km/h 62.3% 0.00in /  0mm 40 W/m2
18:49 82.1 °F /  27.8 °C 68.2 °F /  20.1 °C 29.93in /  1013.4hPa WSW 0.1mph /  0.2km/h 3mph /  4.8km/h 62.8% 0.00in /  0mm 39 W/m2
18:54 82.1 °F /  27.8 °C 68.2 °F /  20.1 °C 29.93in /  1013.4hPa WSW 0.3mph /  0.5km/h 5mph /  8km/h 63% 0.00in /  0mm 35 W/m2
18:59 81.9 °F /  27.7 °C 67.8 °F /  19.9 °C 29.93in /  1013.4hPa Calm   5mph /  8km/h 62.5% 0.00in /  0mm 33 W/m2
19:04 81.8 °F /  27.7 °C 68 °F /  20 °C 29.93in /  1013.4hPa Calm   5mph /  8km/h 63% 0.00in /  0mm 32 W/m2
19:09 81.6 °F /  27.6 °C 68.1 °F /  20.1 °C 29.93in /  1013.4hPa Calm     63.6% 0.00in /  0mm 30 W/m2
19:14 81.5 °F /  27.5 °C 68.1 °F /  20.1 °C 29.93in /  1013.4hPa Calm     64% 0.00in /  0mm 30 W/m2
19:19 81.3 °F /  27.4 °C 68 °F /  20 °C 29.94in /  1013.8hPa Calm     64% 0.00in /  0mm 28 W/m2
19:24 81.1 °F /  27.3 °C 67.8 °F /  19.9 °C 29.94in /  1013.8hPa Calm     64% 0.00in /  0mm 26 W/m2
19:29 80.9 °F /  27.2 °C 67.8 °F /  19.9 °C 29.94in /  1013.8hPa Calm     64.4% 0.00in /  0mm 26 W/m2
19:34 80.7 °F /  27.1 °C 67.9 °F /  19.9 °C 29.94in /  1013.8hPa Calm     65% 0.00in /  0mm 25 W/m2
19:39 80.6 °F /  27 °C 68.2 °F /  20.1 °C 29.94in /  1013.8hPa Calm     66% 0.00in /  0mm 23 W/m2
19:44 80.4 °F /  26.9 °C 68.1 °F /  20.1 °C 29.94in /  1013.8hPa Calm     66% 0.00in /  0mm 21 W/m2
19:49 80.2 °F /  26.8 °C 67.9 °F /  19.9 °C 29.94in /  1013.8hPa Calm     66.1% 0.00in /  0mm 19 W/m2
19:54 80 °F /  26.7 °C 68.1 °F /  20.1 °C 29.94in /  1013.8hPa Calm     67% 0.00in /  0mm 18 W/m2
19:59 79.8 °F /  26.6 °C 68.2 °F /  20.1 °C 29.94in /  1013.8hPa Calm     67.6% 0.00in /  0mm 14 W/m2
20:09 79.4 °F /  26.3 °C 67.9 °F /  19.9 °C 29.95in /  1014.1hPa Calm     68% 0.00in /  0mm 9 W/m2
20:14 79.1 °F /  26.2 °C 67.9 °F /  19.9 °C 29.95in /  1014.1hPa Calm     68.6% 0.00in /  0mm 9 W/m2
20:19 78.8 °F /  26 °C 67.9 °F /  19.9 °C 29.95in /  1014.1hPa Calm     69.2% 0.00in /  0mm 5 W/m2
20:24 78.5 °F /  25.8 °C 67.9 °F /  19.9 °C 29.95in /  1014.1hPa Calm     70% 0.00in /  0mm 0 W/m2
20:29 78.2 °F /  25.7 °C 67.7 °F /  19.8 °C 29.95in /  1014.1hPa Calm     70% 0.00in /  0mm 0 W/m2
20:34 77.9 °F /  25.5 °C 67.5 °F /  19.7 °C 29.95in /  1014.1hPa Calm     70.3% 0.00in /  0mm 0 W/m2
20:39 77.7 °F /  25.4 °C 67.5 °F /  19.7 °C 29.96in /  1014.4hPa Calm     71% 0.00in /  0mm 0 W/m2
20:44 77.4 °F /  25.2 °C 67.3 °F /  19.6 °C 29.96in /  1014.4hPa Calm     71% 0.00in /  0mm 0 W/m2
20:49 77.1 °F /  25.1 °C 67.3 °F /  19.6 °C 29.96in /  1014.4hPa Calm     71.9% 0.00in /  0mm 0 W/m2
20:54 76.8 °F /  24.9 °C 67.1 °F /  19.5 °C 29.96in /  1014.4hPa Calm     72% 0.00in /  0mm 0 W/m2
20:59 76.6 °F /  24.8 °C 67.1 °F /  19.5 °C 29.96in /  1014.4hPa Calm     72.3% 0.00in /  0mm 0 W/m2
21:04 76.4 °F /  24.7 °C 67.2 °F /  19.6 °C 29.96in /  1014.4hPa Calm     73% 0.00in /  0mm 0 W/m2
21:09 76.3 °F /  24.6 °C 67.1 °F /  19.5 °C 29.96in /  1014.4hPa Calm     73.3% 0.00in /  0mm 0 W/m2
21:14 76 °F /  24.4 °C 67.1 °F /  19.5 °C 29.97in /  1014.8hPa Calm     74% 0.00in /  0mm 0 W/m2
21:19 75.8 °F /  24.3 °C 66.9 °F /  19.4 °C 29.97in /  1014.8hPa Calm     74.1% 0.00in /  0mm 0 W/m2
21:24 75.5 °F /  24.2 °C 67 °F /  19.4 °C 29.97in /  1014.8hPa Calm     75% 0.00in /  0mm 0 W/m2
21:29 75.3 °F /  24.1 °C 67 °F /  19.4 °C 29.98in /  1015.1hPa Calm     75.6% 0.00in /  0mm 0 W/m2
21:34 75 °F /  23.9 °C 67 °F /  19.4 °C 29.98in /  1015.1hPa Calm     76% 0.00in /  0mm 0 W/m2
21:39 74.8 °F /  23.8 °C 66.9 °F /  19.4 °C 29.98in /  1015.1hPa Calm     76.4% 0.00in /  0mm 0 W/m2
21:44 74.6 °F /  23.7 °C 66.9 °F /  19.4 °C 29.98in /  1015.1hPa Calm     77% 0.00in /  0mm 0 W/m2
21:49 74.4 °F /  23.6 °C 67 °F /  19.4 °C 29.98in /  1015.1hPa Calm     77.8% 0.00in /  0mm 0 W/m2
21:54 74.2 °F /  23.4 °C 66.9 °F /  19.4 °C 29.98in /  1015.1hPa Calm     78% 0.00in /  0mm 0 W/m2
21:59 74 °F /  23.3 °C 66.8 °F /  19.3 °C 29.98in /  1015.1hPa Calm     78.2% 0.00in /  0mm 0 W/m2
22:04 73.8 °F /  23.2 °C 66.9 °F /  19.4 °C 29.99in /  1015.5hPa Calm     79% 0.00in /  0mm 0 W/m2
22:09 73.6 °F /  23.1 °C 66.8 °F /  19.3 °C 29.99in /  1015.5hPa Calm     79.3% 0.00in /  0mm 0 W/m2
22:14 73.4 °F /  23 °C 66.9 °F /  19.4 °C 29.99in /  1015.5hPa Calm     80% 0.00in /  0mm 0 W/m2
22:19 73.3 °F /  22.9 °C 66.7 °F /  19.3 °C 29.99in /  1015.5hPa Calm     80% 0.00in /  0mm 0 W/m2
22:24 73.1 °F /  22.8 °C 66.8 °F /  19.3 °C 29.99in /  1015.5hPa Calm     80.6% 0.00in /  0mm 0 W/m2
22:29 72.8 °F /  22.7 °C 66.7 °F /  19.3 °C 29.99in /  1015.5hPa Calm     81% 0.00in /  0mm 0 W/m2
22:34 72.6 °F /  22.6 °C 66.5 °F /  19.2 °C 29.99in /  1015.5hPa Calm     81.2% 0.00in /  0mm 0 W/m2
22:39 72.5 °F /  22.5 °C 66.7 °F /  19.3 °C 29.99in /  1015.5hPa Calm     82% 0.00in /  0mm 0 W/m2
22:44 72.4 °F /  22.4 °C 66.6 °F /  19.2 °C 29.99in /  1015.5hPa Calm     82% 0.00in /  0mm 0 W/m2
22:49 72.2 °F /  22.3 °C 66.4 °F /  19.1 °C 29.99in /  1015.5hPa Calm     82% 0.00in /  0mm 0 W/m2
22:54 72.1 °F /  22.3 °C 66.5 °F /  19.2 °C 29.99in /  1015.5hPa Calm     82.5% 0.00in /  0mm 0 W/m2
22:59 71.9 °F /  22.2 °C 66.4 °F /  19.1 °C 29.99in /  1015.5hPa Calm     82.7% 0.00in /  0mm 0 W/m2
23:04 71.8 °F /  22.1 °C 66.3 °F /  19.1 °C 29.99in /  1015.5hPa Calm     83% 0.00in /  0mm 0 W/m2
23:09 71.6 °F /  22 °C 66.2 °F /  19 °C 29.99in /  1015.5hPa Calm     83% 0.00in /  0mm 0 W/m2
23:14 71.5 °F /  21.9 °C 66.1 °F /  18.9 °C 30.00in /  1015.8hPa Calm     83.1% 0.00in /  0mm 0 W/m2
23:19 71.3 °F /  21.8 °C 66.2 °F /  19 °C 30.00in /  1015.8hPa Calm     84% 0.00in /  0mm 0 W/m2
23:24 71.1 °F /  21.7 °C 66.1 °F /  18.9 °C 30.00in /  1015.8hPa Calm     84.1% 0.00in /  0mm 0 W/m2
23:29 71 °F /  21.7 °C 66.2 °F /  19 °C 30.00in /  1015.8hPa Calm     85% 0.00in /  0mm 0 W/m2
23:34 70.9 °F /  21.6 °C 66.1 °F /  18.9 °C 30.00in /  1015.8hPa Calm     85% 0.00in /  0mm 0 W/m2
23:39 70.8 °F /  21.6 °C 66.1 °F /  18.9 °C 30.00in /  1015.8hPa Calm     85% 0.00in /  0mm 0 W/m2
23:44 70.8 °F /  21.6 °C 66.2 °F /  19 °C 30.00in /  1015.8hPa Calm     85.5% 0.00in /  0mm 0 W/m2
23:49 70.7 °F /  21.5 °C 66 °F /  18.9 °C 30.00in /  1015.8hPa Calm     85% 0.00in /  0mm 0 W/m2
23:54 70.6 °F /  21.4 °C 66 °F /  18.9 °C 30.00in /  1015.8hPa Calm     85.3% 0.00in /  0mm 0 W/m2
23:59 70.5 °F /  21.4 °C 66.2 °F /  19 °C 30.00in /  1015.8hPa Calm     86% 0.00in /  0mm 0 W/m2
Hartford County Weather
Compliments of Weather Underground - 2 mb